Time;durP1;ratioP1;P1;durP2;ratioP2;P2;SDS_P1;SDS_P2;PMS_P1;PMS_P2;Temp;Humidity;BMP_temperature;BMP_pressure;BME280_temperature;BME280_humidity;BME280_pressure;Samples;Min_cycle;Max_cycle;Signal;HPM_P1;HPM_P2
2022/12/16 00:00:14;;;;;;;138.63;93.68;;;-1.00;99.90;;;;;;4987944;28;20038;-77
2022/12/16 00:02:40;;;;;;;138.73;95.40;;;-1.00;99.90;;;;;;4989422;28;20049;-78
2022/12/16 00:05:07;;;;;;;58.92;28.13;;;-1.00;99.90;;;;;;4989415;28;20046;-78
2022/12/16 00:07:33;;;;;;;138.27;91.00;;;-1.00;99.90;;;;;;5005134;28;20100;-78
2022/12/16 00:09:59;;;;;;;144.88;92.88;;;-1.00;99.90;;;;;;4985009;28;20046;-78
2022/12/16 00:12:25;;;;;;;136.45;92.25;;;-1.00;99.90;;;;;;4992338;28;20103;-78
2022/12/16 00:14:50;;;;;;;141.27;90.90;;;-1.00;99.90;;;;;;4992317;28;20640;-78
2022/12/16 00:17:35;;;;;;;138.75;92.22;;;-0.90;99.90;;;;;;4995197;28;20125;-78
2022/12/16 00:20:24;;;;;;;140.70;95.38;;;-0.90;99.90;;;;;;4997651;28;20041;-78
2022/12/16 00:22:50;;;;;;;153.45;99.65;;;-0.90;99.90;;;;;;4997360;28;20085;-78
2022/12/16 00:25:22;;;;;;;153.00;96.40;;;-0.90;99.90;;;;;;4996149;28;20089;-78
2022/12/16 00:27:48;;;;;;;143.35;95.32;;;-0.90;99.90;;;;;;4991463;28;20081;-78
2022/12/16 00:30:14;;;;;;;144.32;93.72;;;-0.90;99.90;;;;;;4992728;28;20132;-78
2022/12/16 00:32:40;;;;;;;163.18;99.97;;;-0.90;99.90;;;;;;4992334;28;20180;-78
2022/12/16 00:35:06;;;;;;;148.05;95.05;;;-0.80;99.90;;;;;;4992615;28;20125;-77
2022/12/16 00:37:31;;;;;;;144.60;94.75;;;-0.80;99.90;;;;;;4991487;28;20049;-78
2022/12/16 00:39:57;;;;;;;145.95;94.85;;;-0.80;99.90;;;;;;4991980;28;20045;-77
2022/12/16 00:42:23;;;;;;;145.57;93.28;;;-0.80;99.90;;;;;;4991938;28;20046;-78
2022/12/16 00:44:48;;;;;;;138.75;91.25;;;-0.80;99.90;;;;;;4990702;28;20112;-77
2022/12/16 00:47:14;;;;;;;142.52;95.15;;;-0.70;99.90;;;;;;4992721;28;20052;-78
2022/12/16 00:49:39;;;;;;;68.78;36.28;;;-0.80;99.90;;;;;;4991676;28;20507;-78
2022/12/16 00:52:05;;;;;;;144.63;94.40;;;-0.70;99.90;;;;;;4992042;28;20053;-78
2022/12/16 00:54:31;;;;;;;140.60;96.25;;;-0.80;99.90;;;;;;4990821;28;20054;-77
2022/12/16 00:56:56;;;;;;;144.98;92.15;;;-0.70;99.90;;;;;;4991515;28;20627;-77
2022/12/16 00:59:23;;;;;;;138.90;90.07;;;-0.70;99.90;;;;;;4991050;28;20057;-77
2022/12/16 01:01:48;;;;;;;128.48;88.95;;;-0.70;99.90;;;;;;4990144;28;20049;-79
2022/12/16 01:04:15;;;;;;;143.32;96.63;;;-0.70;99.90;;;;;;4992635;28;20411;-79
2022/12/16 01:06:41;;;;;;;137.13;93.03;;;-0.70;99.90;;;;;;4992498;28;20456;-79
2022/12/16 01:09:07;;;;;;;140.82;87.55;;;-0.70;99.90;;;;;;4992270;28;20184;-79
2022/12/16 01:11:33;;;;;;;134.15;89.22;;;-0.70;99.90;;;;;;4989819;28;20133;-79
2022/12/16 01:13:59;;;;;;;140.48;92.97;;;-0.70;99.90;;;;;;4991604;28;20087;-79
2022/12/16 01:16:24;;;;;;;141.40;93.82;;;-0.70;99.90;;;;;;4988624;28;20034;-79
2022/12/16 01:18:50;;;;;;;144.55;91.05;;;-0.70;99.90;;;;;;4990592;28;20050;-79
2022/12/16 01:21:16;;;;;;;139.10;89.93;;;-0.70;99.90;;;;;;4990813;28;20041;-79
2022/12/16 01:23:41;;;;;;;137.48;91.70;;;-0.70;99.90;;;;;;4990968;28;20049;-79
2022/12/16 01:26:13;;;;;;;144.20;92.32;;;-0.70;99.90;;;;;;4991529;28;20042;-79
2022/12/16 01:28:39;;;;;;;147.70;94.25;;;-0.70;99.90;;;;;;5007570;28;20045;-79
2022/12/16 01:31:05;;;;;;;133.80;88.55;;;-0.70;99.90;;;;;;4990567;28;20048;-79
2022/12/16 01:33:31;;;;;;;78.68;38.13;;;-0.60;99.90;;;;;;4989890;28;20120;-79
2022/12/16 01:35:59;;;;;;;135.38;88.07;;;-0.70;99.90;;;;;;4989039;28;20052;-79
2022/12/16 01:38:25;;;;;;;144.95;94.43;;;-0.70;99.90;;;;;;4990395;28;20049;-79
2022/12/16 01:40:50;;;;;;;144.50;93.95;;;-0.70;99.90;;;;;;4990876;28;20042;-79
2022/12/16 01:43:20;;;;;;;153.98;99.13;;;-0.60;99.90;;;;;;4991324;28;20042;-79
2022/12/16 01:45:46;;;;;;;148.65;95.25;;;-0.60;99.90;;;;;;4990405;28;20054;-79
2022/12/16 01:48:26;;;;;;;140.43;90.45;;;-0.60;99.90;;;;;;4989584;28;20053;-79
2022/12/16 01:50:55;;;;;;;137.27;95.75;;;-0.60;99.90;;;;;;5005084;28;20053;-79
2022/12/16 01:53:21;;;;;;;148.68;96.13;;;-0.60;99.90;;;;;;4988378;28;20049;-79
2022/12/16 01:55:49;;;;;;;139.10;93.68;;;-0.60;99.90;;;;;;4990659;28;20050;-79
2022/12/16 01:58:20;;;;;;;144.23;99.03;;;-0.60;99.90;;;;;;4990352;28;20058;-79
2022/12/16 02:00:45;;;;;;;146.35;93.82;;;-0.60;99.90;;;;;;4988725;28;20116;-79
2022/12/16 02:03:11;;;;;;;151.55;98.03;;;-0.60;99.90;;;;;;4990432;28;20046;-79
2022/12/16 02:05:40;;;;;;;150.02;95.20;;;-0.60;99.90;;;;;;4989389;28;20060;-78
2022/12/16 02:08:09;;;;;;;146.90;94.30;;;-0.60;99.90;;;;;;4987428;28;20050;-79
2022/12/16 02:10:40;;;;;;;;;;;-0.60;99.90;;;;;;4990647;28;20045;-79
2022/12/16 02:13:24;;;;;;;140.18;96.40;;;-0.60;99.90;;;;;;5006379;28;20000;-78
2022/12/16 02:16:11;;;;;;;156.13;96.70;;;-0.60;99.90;;;;;;4986806;28;20042;-79
2022/12/16 02:19:22;;;;;;;62.60;28.55;;;-0.60;99.90;;;;;;5004640;28;20057;-79
2022/12/16 02:22:25;;;;;;;130.13;91.45;;;-0.60;99.90;;;;;;4960935;28;20821;-79
2022/12/16 02:25:19;;;;;;;138.63;91.03;;;-0.60;99.90;;;;;;4990790;28;20061;-79
2022/12/16 02:27:54;;;;;;;140.88;93.43;;;-0.60;99.90;;;;;;5006694;28;20072;-79
2022/12/16 02:30:58;;;;;;;150.18;99.30;;;-0.50;99.90;;;;;;4989915;28;20050;-79
2022/12/16 02:33:39;;;;;;;142.05;92.18;;;-0.50;99.90;;;;;;4988261;28;20058;-79
2022/12/16 02:36:10;;;;;;;144.57;91.80;;;-0.50;99.90;;;;;;4988845;28;20050;-79
2022/12/16 02:38:55;;;;;;;136.23;93.07;;;-0.50;99.90;;;;;;4987486;28;20046;-79
2022/12/16 02:41:36;;;;;;;138.88;93.97;;;-0.50;99.90;;;;;;4987286;28;20177;-78
2022/12/16 02:44:07;;;;;;;161.02;95.55;;;-0.50;99.90;;;;;;5006008;28;20046;-79
2022/12/16 02:46:42;;;;;;;147.82;96.45;;;-0.50;99.90;;;;;;5000719;28;20046;-78
2022/12/16 02:49:27;;;;;;;79.15;42.85;;;-0.50;99.90;;;;;;4988063;28;20534;-79
2022/12/16 02:51:55;;;;;;;152.48;94.57;;;-0.50;99.90;;;;;;4976323;28;20514;-79
2022/12/16 02:54:21;;;;;;;93.40;38.38;;;-0.50;99.90;;;;;;4984843;28;20050;-78
2022/12/16 02:56:54;;;;;;;145.70;96.35;;;-0.50;99.90;;;;;;4988796;28;20462;-79
2022/12/16 02:59:29;;;;;;;152.38;97.13;;;-0.50;99.90;;;;;;4989614;28;20050;-78
2022/12/16 03:02:11;;;;;;;149.68;95.00;;;-0.50;99.90;;;;;;4989216;28;20124;-78
2022/12/16 03:04:42;;;;;;;145.65;97.13;;;-0.50;99.90;;;;;;4987863;28;20475;-79
2022/12/16 03:07:12;;;;;;;149.52;93.13;;;-0.50;99.90;;;;;;4988726;28;20077;-78
2022/12/16 03:09:41;;;;;;;141.85;91.32;;;-0.50;99.90;;;;;;5000439;28;20069;-79
2022/12/16 03:12:09;;;;;;;;;;;-0.50;99.90;;;;;;4997273;28;20054;-79
2022/12/16 03:14:37;;;;;;;77.75;37.92;;;-0.50;99.90;;;;;;4986940;28;19921;-79
2022/12/16 03:17:04;;;;;;;72.43;37.72;;;-0.50;99.90;;;;;;4988943;28;20056;-78
2022/12/16 03:19:30;;;;;;;139.80;94.32;;;-0.50;99.90;;;;;;5005047;28;20440;-79
2022/12/16 03:22:08;;;;;;;156.48;95.68;;;-0.50;99.90;;;;;;4988569;28;20132;-79
2022/12/16 03:24:35;;;;;;;148.32;96.35;;;-0.50;99.90;;;;;;4989092;28;20073;-79
2022/12/16 03:27:06;;;;;;;142.05;93.68;;;-0.40;99.90;;;;;;4988192;28;20698;-79
2022/12/16 03:29:54;;;;;;;140.10;94.28;;;-0.40;99.90;;;;;;4989417;28;20034;-79
2022/12/16 03:32:23;;;;;;;146.40;94.38;;;-0.40;99.90;;;;;;4988750;28;20416;-79
2022/12/16 03:35:22;;;;;;;138.85;93.63;;;-0.40;99.90;;;;;;5005745;28;20046;-79
2022/12/16 03:37:51;;;;;;;144.45;95.63;;;-0.40;99.90;;;;;;4987332;28;20068;-78
2022/12/16 03:40:18;;;;;;;142.18;95.07;;;-0.40;99.90;;;;;;4989183;28;20065;-79
2022/12/16 03:42:44;;;;;;;143.30;94.72;;;-0.40;99.90;;;;;;4987758;28;20402;-78
2022/12/16 03:45:20;;;;;;;77.38;37.13;;;-0.40;99.90;;;;;;4988755;28;20056;-76
2022/12/16 03:47:55;;;;;;;145.68;96.60;;;-0.40;99.90;;;;;;4993203;28;20630;-80
2022/12/16 03:50:25;;;;;;;142.35;92.22;;;-0.40;99.90;;;;;;4987730;28;20495;-77
2022/12/16 03:52:51;;;;;;;138.18;93.38;;;-0.40;99.90;;;;;;5006654;28;20486;-77
2022/12/16 03:55:17;;;;;;;153.90;95.07;;;-0.40;99.90;;;;;;5008665;28;20128;-78
2022/12/16 03:57:43;;;;;;;149.35;94.78;;;-0.40;99.90;;;;;;4992805;28;20555;-77
2022/12/16 04:00:09;;;;;;;142.38;93.53;;;-0.30;99.90;;;;;;4990927;28;20411;-78
2022/12/16 04:02:35;;;;;;;87.38;39.45;;;-0.30;99.90;;;;;;4992463;28;20088;-78
2022/12/16 04:05:00;;;;;;;147.38;95.60;;;-0.30;99.90;;;;;;4990391;28;20522;-78
2022/12/16 04:07:26;;;;;;;144.82;95.00;;;-0.30;99.90;;;;;;4987313;28;20046;-78
2022/12/16 04:09:52;;;;;;;142.82;93.45;;;-0.30;99.90;;;;;;4992287;28;20057;-78
2022/12/16 04:26:12;;;;;;;83.70;36.00;;;-0.30;99.90;;;;;;4991860;28;20050;-78
2022/12/16 04:28:37;;;;;;;138.05;91.50;;;-0.30;99.90;;;;;;4992389;28;20072;-78
2022/12/16 04:31:03;;;;;;;145.07;95.05;;;-0.30;99.90;;;;;;4990927;28;20491;-78
